Nearby METAR Reports

 

KMGE - Dobbins Afb/Marietta, Ga, USA
Distance from station: ENE 10mi, 17km
Updated: Thu, 17-Aug-2017 6:58am EDT
Mostly cloudy
Mostly cloudy
 Wind from W
Wind: W 6 mph , 9 km/h
Temperature: 75°F , 24°C
Dew Point: 72°F , 22°C
Humidity: 89%
Barometer: 30.08 inHg , 1018.6 hPa
Clouds: Mostly cloudy
Visibility: 10 miles , 16 km
Cloud details: Partly cloudy 2000 ft
Mostly cloudy 25000 ft
2017/08/17 10:58 KMGE 171058Z 28005KT 10SM SCT020 BKN250 24/22 A3008 RMK AO2A SLP175 T02380223 $
KFTY - Fulton, Ga, USA
Distance from station: ESE 11mi, 18km
Updated: Thu, 17-Aug-2017 6:53am EDT
Clear
Clear
 Wind from SW
Wind: SW 3 mph , 6 km/h
Temperature: 75°F , 24°C
Dew Point: 75°F , 24°C
Humidity: 100%
Barometer: 30.07 inHg , 1018.3 hPa
Clouds: Clear
Visibility: 10 miles , 16 km
2017/08/17 10:53 KFTY 171053Z 22003KT 10SM CLR 24/24 A3007 RMK AO2 SLP172 T02440239
 
KRYY - Marietta Mccolum, Ga, USA
Distance from station: NNE 12mi, 19km
Updated: Thu, 17-Aug-2017 6:51am EDT
Few Clouds
Few Clouds
 Wind from calm
Wind: Calm
Temperature: 75°F , 24°C
Dew Point: 72°F , 22°C
Humidity: 89%
Barometer: 30.09 inHg , 1019 hPa
Clouds: Few Clouds
Visibility: 10 miles , 16 km
Cloud details: Few Clouds 3400 ft
2017/08/17 10:51 KRYY 171051Z 00000KT 10SM FEW034 24/22 A3009 RMK AO2 SLP187 T02440222
KPUJ - Paulding, Ga, USA
Distance from station: WNW 15mi, 24km
Updated: Thu, 17-Aug-2017 7:15am EDT
Clear
Clear
 Wind from calm
Wind: Calm
Temperature: 77°F , 25°C
Barometer: 30.11 inHg , 1019.6 hPa
Clouds: Clear
Visibility: 10 miles , 16 km
2017/08/17 11:15 KPUJ 171115Z AUTO 00000KT 10SM CLR 25/ A3011 RMK AO2
 
KATL - Atlanta, Ga, USA
Distance from station: SE 21mi, 33km
Updated: Thu, 17-Aug-2017 6:52am EDT
Few Clouds
Few Clouds
 Wind from W
Wind: W 7 mph , 11 km/h
Temperature: 77°F , 25°C
Dew Point: 73°F , 23°C
Humidity: 89%
Barometer: 30.08 inHg , 1018.6 hPa
Clouds: Few Clouds
Visibility: 10 miles , 16 km
Cloud details: Few Clouds 3000 ft
Few Clouds 25000 ft
2017/08/17 10:52 KATL 171052Z 28006KT 10SM FEW030 FEW250 25/23 A3008 RMK AO2 SLP174 T02500228
KVPC - Cartersville, Ga, USA
Distance from station: NNW 21mi, 34km
Updated: Thu, 17-Aug-2017 7:02am EDT
Mostly cloudy
Mostly cloudy
 Wind from calm
Wind: Calm
Temperature: 73°F , 23°C
Dew Point: 73°F , 23°C
Humidity: 100%
Barometer: 30.09 inHg , 1019 hPa
Clouds: Mostly cloudy
Visibility: 9 miles , 14 km
Cloud details: Mostly cloudy 2300 ft
2017/08/17 11:02 KVPC 171102Z AUTO 00000KT 9SM BKN023 23/23 A3009 RMK AO2 T02280228
 
KPDK - Peachtree/Dekalb, Ga, USA
Distance from station: E 22mi, 36km
Updated: Thu, 17-Aug-2017 7:00am EDT

 
Visibility: 42 miles
2017/08/17 11:00 KPDK 171100Z 26004 10SM CLR 24/23 A3008
KCTJ - Carrollton/Gray, Ga, USA
Distance from station: WSW 31mi, 50km
Updated: Thu, 17-Aug-2017 7:15am EDT
Partly cloudy
Partly cloudy
 Wind from calm
Wind: Calm
Temperature: 73°F , 23°C
Dew Point: 72°F , 22°C
Humidity: 94%
Barometer: 30.14 inHg , 1020.7 hPa
Clouds: Partly cloudy
Visibility: 7 miles , 11 km
Cloud details: Partly cloudy 300 ft
Partly cloudy 10000 ft
2017/08/17 11:15 KCTJ 171115Z AUTO 00000KT 7SM SCT003 SCT100 23/22 A3014 RMK AO2 T02260222
 
KCNI - Canton/Cherokee, Ga, USA
Distance from station: NNE 35mi, 56km
Updated: Thu, 17-Aug-2017 7:15am EDT
Mist, Clear
Mist, Clear
 Wind from calm
Wind: Calm
Temperature: 73°F , 23°C
Dew Point: 73°F , 23°C
Humidity: 100%
Barometer: 30.11 inHg , 1019.6 hPa
Summary: Mist
Clouds: Clear
Visibility: 5 miles , 8 km
2017/08/17 11:15 KCNI 171115Z AUTO 00000KT 5SM BR CLR 23/23 A3011 RMK AO2
KFFC - Peachtree City, Ga, USA
Distance from station: S 36mi, 58km
Updated: Thu, 17-Aug-2017 6:53am EDT
Mist, Clear
Mist, Clear
 Wind from calm
Wind: Calm
Temperature: 73°F , 23°C
Dew Point: 73°F , 23°C
Humidity: 100%
Barometer: 30.08 inHg , 1018.6 hPa
Summary: Mist
Clouds: Clear
Visibility: 6 miles , 10 km
2017/08/17 10:53 KFFC 171053Z AUTO 00000KT 6SM BR CLR 23/23 A3008 RMK AO2 SLP180 T02330233
 
KCCO - Newnan, Ga, USA
Distance from station: S 38mi, 61km
Updated: Thu, 17-Aug-2017 7:15am EDT
Mist, Mostly cloudy
Mist, Mostly cloudy
 Wind from calm
Wind: Calm
Temperature: 75°F , 24°C
Dew Point: 75°F , 24°C
Humidity: 100%
Barometer: 30.10 inHg , 1019.3 hPa
Summary: Mist
Clouds: Mostly cloudy
Visibility: 5 miles , 8 km
Cloud details: Mostly cloudy 200 ft
2017/08/17 11:15 KCCO 171115Z AUTO 00000KT 5SM BR BKN002 24/24 A3010 RMK AO2 T02410241
KLZU - Lawrenceville, Ga, USA
Distance from station: ENE 42mi, 68km
Updated: Thu, 17-Aug-2017 6:45am EDT
Clear
Clear
 Wind from calm
Wind: Calm
Temperature: 73°F , 23°C
Dew Point: 73°F , 23°C
Humidity: 100%
Barometer: 30.08 inHg , 1018.6 hPa
Clouds: Clear
Visibility: 7 miles , 11 km
2017/08/17 10:45 KLZU 171045Z 00000KT 7SM CLR 23/23 A3008 RMK ATIS D ; RWY 25 ; VISUALS ; BK
 
KRMG - Rome, Ga, USA
Distance from station: NW 44mi, 70km
Updated: Thu, 17-Aug-2017 6:53am EDT
Mist, Few clouds
Mist, Few clouds
 Wind from calm
Wind: Calm
Temperature: 73°F , 23°C
Dew Point: 73°F , 23°C
Humidity: 100%
Barometer: 30.06 inHg , 1017.9 hPa
Summary: Mist
Clouds: Few Clouds
Visibility: 6 miles , 10 km
Cloud details: Few Clouds 2700 ft
2017/08/17 10:53 KRMG 171053Z AUTO 00000KT 6SM BR FEW027 23/23 A3006 RMK AO2 SLP169 T02330233
K6A2 - Griffin-Spalding, Ga, USA
Distance from station: SSE 49mi, 80km
Updated: Thu, 17-Aug-2017 7:15am EDT
Clear
Clear
 Wind from WNW
Wind: WNW 5 mph , 7 km/h
Temperature: 77°F , 25°C
Dew Point: 75°F , 24°C
Humidity: 94%
Barometer: 30.09 inHg , 1019 hPa
Clouds: Clear
Visibility: 10 miles , 16 km
2017/08/17 11:15 K6A2 171115Z AUTO 29004KT 10SM CLR 25/24 A3009 RMK AO2